WetterOnline ( https://www.wetteronline.de )

Wetter aktuell Moormerland

Aktuelles Wetter: Emden (5m)

6-stündlich | Neueste Meldungen
Ortszeit Temperatur Wetter
Fr, 07.05. 20:00 8.6° C wolkenlos
Fr, 07.05. 14:00 10.3° C wolkig
Fr, 07.05. 8:00 5.5° C leicht bewölkt
Fr, 07.05. 2:00 3.4° C leichter Regen
Do, 06.05. 20:00 6.5° C bedeckt
Do, 06.05. 14:00 8.6° C leicht bewölkt
Do, 06.05. 8:00 5.4° C fast wolkenlos
Do, 06.05. 2:00 4.4° C fast wolkenlos
Ortszeit Temperatur Wetter
Sa, 08.05. 1:00 5.9° C leicht bewölkt
Sa, 08.05. 0:50 5.9° C leicht bewölkt
Sa, 08.05. 0:40 5.9° C leicht bewölkt
Sa, 08.05. 0:30 4.9° C wolkig
Sa, 08.05. 0:20 4.9° C wolkig
Sa, 08.05. 0:10 4.9° C leicht bewölkt
Sa, 08.05. 0:00 5.2° C wolkenlos
Fr, 07.05. 23:30 4.8° C wolkenlos
Fr, 07.05. 23:00 5.3° C wolkenlos
Fr, 07.05. 22:30 5.3° C wolkenlos
Fr, 07.05. 22:00 5.4° C wolkenlos
Ortszeit Relative Feuchte Sichtweite
Fr, 07.05. 20:00 70% 60 km
Fr, 07.05. 14:00 58% 60 km
Fr, 07.05. 8:00 87% 65 km
Fr, 07.05. 2:00 94% 30 km
Do, 06.05. 20:00 76% >70 km
Do, 06.05. 14:00 61% 55 km
Do, 06.05. 8:00 78% 45 km
Do, 06.05. 2:00 78% 40 km
Ortszeit Relative Feuchte Sichtweite
Sa, 08.05. 1:00 83% 40 km
Sa, 08.05. 0:50 83% -
Sa, 08.05. 0:40 84% -
Sa, 08.05. 0:30 87% 35 km
Sa, 08.05. 0:20 87% -
Sa, 08.05. 0:10 87% -
Sa, 08.05. 0:00 86% 40 km
Fr, 07.05. 23:30 87% 40 km
Fr, 07.05. 23:00 84% 40 km
Fr, 07.05. 22:30 84% 50 km
Fr, 07.05. 22:00 83% 45 km
Ortszeit Niederschlagsmenge Niederschlagsart
Fr, 07.05. 20:00 0.1 l/m2 in 12 Std. -
Fr, 07.05. 14:00 0.1 l/m2 in 6 Std. Regen
Fr, 07.05. 8:00 2 l/m2 in 12 Std. Regen
Fr, 07.05. 2:00 2 l/m2 in 6 Std. Regen
Do, 06.05. 20:00 0.1 l/m2 in 12 Std. Regen
Do, 06.05. 14:00 0.0 l/m2 in 6 Std. -
Do, 06.05. 8:00 0.1 l/m2 in 12 Std. -
Do, 06.05. 2:00 0.1 l/m2 in 6 Std. Regen
Ortszeit Niederschlagsmenge Niederschlagsart
Sa, 08.05. 1:00 0.0 l/m2 in 1 Std. -
Sa, 08.05. 0:50 keine Meldung -
Sa, 08.05. 0:40 keine Meldung -
Sa, 08.05. 0:30 0.0 l/m2 in 1 Std. -
Sa, 08.05. 0:20 keine Meldung -
Sa, 08.05. 0:10 keine Meldung -
Sa, 08.05. 0:00 0.0 l/m2 in 1 Std. -
Fr, 07.05. 23:30 0.0 l/m2 in 1 Std. -
Fr, 07.05. 23:00 0.0 l/m2 in 1 Std. -
Fr, 07.05. 22:30 0.0 l/m2 in 1 Std. -
Fr, 07.05. 22:00 0.0 l/m2 in 1 Std. -
Ortszeit Stärke Spitze Richtung
km/h Bft. km/h Grad Sektor
Fr, 07.05. 20:00 20 4 44 280° W
Fr, 07.05. 14:00 28 4 44 280° W
Fr, 07.05. 8:00 9 2 20 250° W
Fr, 07.05. 2:00 9 2 20 300° NW
Do, 06.05. 20:00 7 2 33 180° S
Do, 06.05. 14:00 17 3 35 200° S
Do, 06.05. 8:00 11 2 32 220° SW
Do, 06.05. 2:00 19 3 52 250° W
Ortszeit Stärke Spitze Richtung
km/h Bft. km/h Grad Sektor
Sa, 08.05. 1:00 9 2 19 240° SW
Sa, 08.05. 0:50 9 2 - 240° SW
Sa, 08.05. 0:40 9 2 - 240° SW
Sa, 08.05. 0:30 6 1 11 250° W
Sa, 08.05. 0:20 6 1 - 250° W
Sa, 08.05. 0:10 7 2 - 250° W
Sa, 08.05. 0:00 7 2 11 240° SW
Fr, 07.05. 23:30 9 2 13 250° W
Fr, 07.05. 23:00 9 2 15 250° W
Fr, 07.05. 22:30 9 2 15 260° W
Fr, 07.05. 22:00 9 2 20 270° W
Ortszeit Untergrenze Bedeckung Gattung
total tief tief mittel hoch
Fr, 07.05. 20:00 - 0/8 0/8 - - -
Fr, 07.05. 14:00 990 m 5/8 5/8 - - -
Fr, 07.05. 8:00 2100 m 3/8 3/8 - - -
Fr, 07.05. 2:00 870 m 7/8 7/8 - - -
Do, 06.05. 20:00 1290 m 8/8 8/8 - - -
Do, 06.05. 14:00 3300 m 4/8 4/8 - - -
Do, 06.05. 8:00 990 m 1/8 1/8 - - -
Do, 06.05. 2:00 1290 m 1/8 2/8 - - -
Ortszeit Bedeckungsgrad in Achtel und Wolkenuntergrenze
Sa, 08.05. 1:00 3(780m) 3(960m)
Sa, 08.05. 0:50 3(780m) 3(960m)
Sa, 08.05. 0:40 4(750m)
Sa, 08.05. 0:30 5(750m)
Sa, 08.05. 0:20 5(750m)
Sa, 08.05. 0:10 3(720m)
Sa, 08.05. 0:00 1(690m)
Fr, 07.05. 23:30 keine Wolken
Fr, 07.05. 23:00 keine Wolken
Fr, 07.05. 22:30 keine Wolken
Fr, 07.05. 22:00 keine Wolken
Ortszeit Luftdruck NN (hPa) Tendenz (hPa in 3 Std.)
Fr, 07.05. 20:00 1016 + 1,2
Fr, 07.05. 14:00 1013 + 2,0
Fr, 07.05. 8:00 1009 + 1,9
Fr, 07.05. 2:00 1007 + 0,8
Do, 06.05. 20:00 1005 0,0
Do, 06.05. 14:00 1006 0,0
Do, 06.05. 8:00 1005 0,0
Do, 06.05. 2:00 1006 0,0
Ortszeit Luftdruck NN (hPa) Tendenz (hPa in 3 Std.)
Sa, 08.05. 1:00 1017 + 0,6
Sa, 08.05. 0:50 1017 keine Meldung
Sa, 08.05. 0:40 1017 keine Meldung
Sa, 08.05. 0:30 1017 + 0,7
Sa, 08.05. 0:20 1017 keine Meldung
Sa, 08.05. 0:10 1017 keine Meldung
Sa, 08.05. 0:00 1017 + 0,8
Fr, 07.05. 23:30 1017 + 0,9
Fr, 07.05. 23:00 1017 + 1,1
Fr, 07.05. 22:30 1017 + 1,1
Fr, 07.05. 22:00 1017 + 1,3
Ortszeit Schneehöhe (cm)
Fr, 07.05. 20:00 0
Fr, 07.05. 14:00 0
Fr, 07.05. 8:00 0
Fr, 07.05. 2:00 0
Do, 06.05. 20:00 0
Do, 06.05. 14:00 0
Do, 06.05. 8:00 0
Do, 06.05. 2:00 0
Ortszeit Schneehöhe (cm)
Sa, 08.05. 1:00 0
Sa, 08.05. 0:50 0
Sa, 08.05. 0:40 0
Sa, 08.05. 0:30 0
Sa, 08.05. 0:20 0
Sa, 08.05. 0:10 0
Sa, 08.05. 0:00 0
Fr, 07.05. 23:30 0
Fr, 07.05. 23:00 0
Fr, 07.05. 22:30 0
Fr, 07.05. 22:00 0
Link zu dieser Seite / Seite empfehlen

Das Wetter in ...